createdAt,value
2017-08-30T00:04:05.656Z,82.20
2017-08-30T00:09:08.878Z,82.00
2017-08-30T00:14:12.115Z,81.80
2017-08-30T00:19:15.413Z,82.40
2017-08-30T00:24:30.641Z,82.20
2017-08-30T00:29:33.851Z,82.70
2017-08-30T00:34:37.093Z,83.10
2017-08-30T00:39:40.284Z,83.50
2017-08-30T00:44:43.450Z,84.80
2017-08-30T00:49:46.639Z,84.50
2017-08-30T00:54:49.867Z,84.70
2017-08-30T00:59:53.073Z,84.90
2017-08-30T01:04:56.264Z,84.90
2017-08-30T01:09:59.467Z,85.10
2017-08-30T01:15:02.775Z,85.70
2017-08-30T01:20:06.020Z,85.60
2017-08-30T01:25:09.232Z,86.20
2017-08-30T01:30:12.468Z,86.60
2017-08-30T01:35:15.784Z,87.00
2017-08-30T01:40:18.987Z,87.50
2017-08-30T01:45:22.192Z,87.80
2017-08-30T01:50:25.608Z,88.30
2017-08-30T01:55:28.803Z,89.10
2017-08-30T02:00:31.996Z,88.70
2017-08-30T02:05:35.231Z,88.60
2017-08-30T02:10:38.442Z,88.20
2017-08-30T02:15:41.616Z,88.00
2017-08-30T02:20:44.837Z,88.10
2017-08-30T02:25:48.026Z,87.80
2017-08-30T02:30:51.235Z,88.50
2017-08-30T02:35:54.434Z,89.50
2017-08-30T02:40:57.645Z,90.40
2017-08-30T02:46:00.855Z,90.10
2017-08-30T02:51:04.073Z,90.50
2017-08-30T02:56:07.307Z,90.70
2017-08-30T03:01:10.531Z,89.40
2017-08-30T03:06:13.772Z,88.60
2017-08-30T03:11:16.962Z,88.80
2017-08-30T03:16:20.227Z,88.70
2017-08-30T03:21:23.456Z,89.60
2017-08-30T03:26:26.677Z,90.60
2017-08-30T03:31:29.875Z,91.60
2017-08-30T03:36:33.111Z,92.30
2017-08-30T03:41:36.318Z,91.30
2017-08-30T03:46:39.525Z,91.40
2017-08-30T03:51:42.727Z,91.60
2017-08-30T03:56:45.957Z,91.40
2017-08-30T04:01:49.163Z,90.90
2017-08-30T04:06:52.363Z,90.20
2017-08-30T04:11:55.753Z,89.90
2017-08-30T04:16:58.962Z,89.70
2017-08-30T04:22:02.171Z,90.10
2017-08-30T04:27:05.396Z,90.80
2017-08-30T04:32:08.601Z,90.80
2017-08-30T04:37:11.810Z,90.80
2017-08-30T04:42:15.012Z,90.80
2017-08-30T04:47:18.294Z,90.40
2017-08-30T04:52:21.495Z,90.60
2017-08-30T04:57:24.720Z,89.40
2017-08-30T05:02:27.930Z,88.90
2017-08-30T05:07:31.147Z,88.50
2017-08-30T05:12:34.347Z,88.00
2017-08-30T05:17:37.558Z,87.40
2017-08-30T05:22:40.833Z,86.90
2017-08-30T05:27:44.078Z,85.90
2017-08-30T05:32:47.310Z,84.30
2017-08-30T05:37:50.528Z,83.50
2017-08-30T05:42:53.799Z,83.30
2017-08-30T05:47:57.024Z,83.60
2017-08-30T05:53:00.233Z,84.20
2017-08-30T05:58:03.512Z,83.50
2017-08-30T06:03:06.725Z,83.30
2017-08-30T06:08:09.935Z,81.10
2017-08-30T06:13:13.145Z,79.40
2017-08-30T06:18:16.352Z,78.90
2017-08-30T06:23:19.560Z,77.50
2017-08-30T06:28:22.771Z,76.40
2017-08-30T06:33:26.012Z,75.70
2017-08-30T06:38:29.323Z,74.40
2017-08-30T06:43:32.735Z,73.60
2017-08-30T06:48:35.951Z,71.10
2017-08-30T06:53:39.160Z,70.40
2017-08-30T06:58:42.368Z,69.40
2017-08-30T07:03:45.583Z,67.60
2017-08-30T07:08:48.825Z,65.00
2017-08-30T07:13:52.018Z,64.80
2017-08-30T07:18:55.254Z,65.40
2017-08-30T07:23:58.470Z,66.70
2017-08-30T07:29:01.669Z,65.60
2017-08-30T07:34:04.880Z,64.70
2017-08-30T07:39:08.080Z,66.10
2017-08-30T07:44:11.314Z,66.60
2017-08-30T07:49:14.527Z,65.10
2017-08-30T07:54:17.746Z,65.40
2017-08-30T07:59:20.965Z,64.50
2017-08-30T08:04:24.158Z,66.20
2017-08-30T08:09:27.362Z,63.40
2017-08-30T08:14:30.565Z,57.50
2017-08-30T08:19:33.761Z,56.90
2017-08-30T08:24:36.959Z,57.10
2017-08-30T08:29:40.165Z,57.50
2017-08-30T08:34:43.419Z,55.80
2017-08-30T08:39:46.620Z,55.70
2017-08-30T08:44:49.806Z,54.40
2017-08-30T08:49:52.963Z,54.60
2017-08-30T08:54:56.166Z,52.90
2017-08-30T08:59:59.374Z,53.00
2017-08-30T09:05:02.588Z,52.60
2017-08-30T09:10:05.844Z,52.70
2017-08-30T09:15:09.074Z,52.40
2017-08-30T09:20:12.260Z,53.00
2017-08-30T09:25:15.566Z,53.50
2017-08-30T09:30:18.777Z,54.70
2017-08-30T09:35:21.972Z,54.40
2017-08-30T09:40:25.185Z,53.70
2017-08-30T09:45:28.378Z,54.30
2017-08-30T09:50:31.591Z,55.20
2017-08-30T09:55:34.801Z,55.00
2017-08-30T10:00:37.991Z,54.70
2017-08-30T10:05:41.201Z,55.70
2017-08-30T10:10:44.405Z,54.70
2017-08-30T10:15:47.603Z,54.40
2017-08-30T10:20:50.814Z,53.90
2017-08-30T10:25:54.031Z,54.40
2017-08-30T10:30:57.261Z,55.20
2017-08-30T10:36:00.475Z,54.40
2017-08-30T10:41:03.694Z,54.40
2017-08-30T10:46:06.914Z,53.80
2017-08-30T10:51:10.103Z,52.60
2017-08-30T10:56:13.308Z,53.20
2017-08-30T11:01:16.536Z,52.20
2017-08-30T11:06:20.703Z,52.20
2017-08-30T11:11:23.908Z,51.10
2017-08-30T11:16:27.123Z,52.10
2017-08-30T11:21:30.330Z,50.80
2017-08-30T11:26:33.630Z,50.80
2017-08-30T11:31:36.845Z,51.20
2017-08-30T11:36:40.090Z,51.30
2017-08-30T11:41:43.423Z,50.80
2017-08-30T11:46:46.687Z,50.80
2017-08-30T11:51:49.878Z,51.20
2017-08-30T11:56:53.062Z,51.40
2017-08-30T12:01:56.271Z,51.40
2017-08-30T12:06:59.479Z,51.70
2017-08-30T12:12:02.681Z,52.60
2017-08-30T12:17:05.873Z,51.60
2017-08-30T12:22:09.145Z,50.70
2017-08-30T12:27:12.383Z,50.00
2017-08-30T12:32:15.591Z,50.30
2017-08-30T12:37:24.469Z,49.70
2017-08-30T12:42:27.658Z,50.70
2017-08-30T12:47:30.937Z,49.60
2017-08-30T12:52:34.137Z,49.80
2017-08-30T12:57:37.434Z,48.50
2017-08-30T13:02:40.706Z,49.90
2017-08-30T13:07:44.050Z,48.00
2017-08-30T13:12:47.261Z,47.50
2017-08-30T13:17:50.459Z,47.50
2017-08-30T13:22:53.659Z,45.20
2017-08-30T13:27:56.880Z,46.80
2017-08-30T13:33:00.075Z,47.60
2017-08-30T13:38:03.297Z,47.50
2017-08-30T13:43:06.494Z,47.20
2017-08-30T13:48:09.722Z,47.70
2017-08-30T13:53:12.936Z,47.70
2017-08-30T13:58:16.303Z,47.90
2017-08-30T14:03:19.513Z,48.50
2017-08-30T14:08:22.749Z,49.00
2017-08-30T14:13:25.945Z,48.20
2017-08-30T14:18:29.229Z,48.10
2017-08-30T14:23:32.439Z,47.10
2017-08-30T14:28:35.667Z,47.90
2017-08-30T14:33:38.844Z,48.00
2017-08-30T14:38:42.032Z,48.40
2017-08-30T14:43:45.431Z,48.60
2017-08-30T14:48:48.630Z,48.50
2017-08-30T14:53:51.829Z,47.50
2017-08-30T14:58:55.050Z,47.30
2017-08-30T15:03:58.262Z,48.60
2017-08-30T15:09:01.569Z,48.40
2017-08-30T15:14:04.777Z,48.90
2017-08-30T15:19:07.979Z,49.40
2017-08-30T15:24:11.178Z,49.40
2017-08-30T15:29:14.412Z,49.30
2017-08-30T15:34:17.609Z,49.00
2017-08-30T15:39:20.826Z,48.60
2017-08-30T15:44:23.988Z,50.30
2017-08-30T15:49:27.259Z,50.80
2017-08-30T15:54:30.459Z,49.90
2017-08-30T15:59:33.673Z,49.80
2017-08-30T16:04:36.839Z,48.80
2017-08-30T16:09:40.323Z,48.80
2017-08-30T16:14:43.507Z,48.60
2017-08-30T16:19:46.734Z,49.40
2017-08-30T16:24:49.961Z,49.90
2017-08-30T16:29:53.201Z,50.70
2017-08-30T16:34:56.416Z,51.80
2017-08-30T16:39:59.616Z,52.20
2017-08-30T16:45:02.813Z,52.30
2017-08-30T16:50:06.013Z,52.20
2017-08-30T16:55:09.229Z,52.00
2017-08-30T17:00:12.477Z,52.20
2017-08-30T17:05:15.768Z,52.60
2017-08-30T17:10:19.152Z,52.10
2017-08-30T17:15:22.361Z,53.20
2017-08-30T17:20:25.586Z,54.10
2017-08-30T17:25:28.814Z,54.70
2017-08-30T17:30:32.048Z,55.80
2017-08-30T17:35:35.241Z,56.40
2017-08-30T17:40:38.469Z,56.70
2017-08-30T17:45:41.694Z,58.20
2017-08-30T17:50:44.953Z,58.00
2017-08-30T17:55:48.137Z,58.20
2017-08-30T18:00:51.354Z,58.80
2017-08-30T18:05:54.567Z,58.70
2017-08-30T18:10:57.828Z,59.40
2017-08-30T18:16:01.028Z,58.90
2017-08-30T18:21:04.266Z,59.70
2017-08-30T18:26:07.481Z,59.70
2017-08-30T18:31:10.700Z,60.30
2017-08-30T18:36:14.015Z,60.60
2017-08-30T18:41:17.298Z,61.00
2017-08-30T18:46:20.516Z,61.70
2017-08-30T18:51:23.706Z,62.00
2017-08-30T18:56:26.924Z,62.80
2017-08-30T19:01:30.152Z,62.80
2017-08-30T19:06:33.396Z,62.10
2017-08-30T19:11:36.638Z,61.90
2017-08-30T19:16:39.821Z,62.10
2017-08-30T19:21:43.033Z,62.50
2017-08-30T19:26:46.252Z,62.50
2017-08-30T19:31:49.478Z,62.00
2017-08-30T19:36:52.682Z,62.00
2017-08-30T19:41:55.912Z,62.20
2017-08-30T19:46:59.122Z,62.10
2017-08-30T19:52:03.151Z,61.80
2017-08-30T19:57:06.385Z,62.40
2017-08-30T20:02:09.608Z,63.10
2017-08-30T20:07:12.827Z,63.70
2017-08-30T20:12:16.013Z,64.40
2017-08-30T20:17:19.219Z,64.30
2017-08-30T20:22:22.421Z,64.10
2017-08-30T20:27:25.634Z,64.20
2017-08-30T20:32:28.844Z,64.40
2017-08-30T20:37:32.068Z,64.60
2017-08-30T20:42:35.333Z,65.30
2017-08-30T20:47:38.594Z,66.40
2017-08-30T20:52:41.771Z,65.90
2017-08-30T20:57:45.023Z,67.00
2017-08-30T21:02:48.227Z,67.40
2017-08-30T21:07:51.431Z,67.60
2017-08-30T21:12:54.642Z,70.80
2017-08-30T21:17:57.903Z,72.90
2017-08-30T21:23:01.087Z,74.80
2017-08-30T21:28:04.396Z,75.80
2017-08-30T21:33:07.832Z,75.20
2017-08-30T21:38:11.204Z,76.60
2017-08-30T21:43:14.430Z,77.30
2017-08-30T21:48:17.621Z,79.00
2017-08-30T21:53:20.836Z,80.10
2017-08-30T21:58:24.035Z,80.70
2017-08-30T22:03:27.234Z,81.20
2017-08-30T22:08:30.436Z,86.60
2017-08-30T22:13:33.653Z,84.90
2017-08-30T22:18:36.856Z,86.50
2017-08-30T22:23:40.071Z,88.90
2017-08-30T22:28:43.274Z,89.10
2017-08-30T22:33:46.799Z,85.50
2017-08-30T22:38:50.038Z,84.70
2017-08-30T22:43:53.241Z,84.70
2017-08-30T22:48:56.441Z,84.40
2017-08-30T22:53:59.674Z,83.70
2017-08-30T22:59:02.854Z,83.10
2017-08-30T23:04:06.080Z,82.80
2017-08-30T23:09:09.268Z,83.90
2017-08-30T23:14:12.471Z,84.40
2017-08-30T23:19:15.667Z,84.80
2017-08-30T23:24:18.899Z,84.50
2017-08-30T23:29:22.127Z,83.70
2017-08-30T23:34:25.316Z,84.20
2017-08-30T23:39:28.688Z,84.50
2017-08-30T23:44:32.114Z,84.20
2017-08-30T23:49:35.312Z,84.10
2017-08-30T23:54:38.507Z,83.80
2017-08-30T23:59:41.692Z,84.10
